sensor_id;sensor_type;location;lat;lon;timestamp;temperature;humidity
75134;HTU21D;73631;44.326;40.200;2023-11-21T00:00:58;6.00;71.16
75134;HTU21D;73631;44.326;40.200;2023-11-21T00:03:24;5.99;71.19
75134;HTU21D;73631;44.326;40.200;2023-11-21T00:05:54;5.97;71.18
75134;HTU21D;73631;44.326;40.200;2023-11-21T00:08:20;5.97;71.22
75134;HTU21D;73631;44.326;40.200;2023-11-21T00:10:47;5.97;71.22
75134;HTU21D;73631;44.326;40.200;2023-11-21T00:13:14;5.95;71.21
75134;HTU21D;73631;44.326;40.200;2023-11-21T00:15:41;5.96;71.19
75134;HTU21D;73631;44.326;40.200;2023-11-21T00:18:07;5.94;71.19
75134;HTU21D;73631;44.326;40.200;2023-11-21T00:20:33;5.94;71.20
75134;HTU21D;73631;44.326;40.200;2023-11-21T00:23:00;5.92;71.16
75134;HTU21D;73631;44.326;40.200;2023-11-21T00:25:28;5.91;71.17
75134;HTU21D;73631;44.326;40.200;2023-11-21T00:27:54;5.89;71.13
75134;HTU21D;73631;44.326;40.200;2023-11-21T00:30:21;5.85;71.14
75134;HTU21D;73631;44.326;40.200;2023-11-21T00:32:48;5.82;71.17
75134;HTU21D;73631;44.326;40.200;2023-11-21T00:35:14;5.77;71.22
75134;HTU21D;73631;44.326;40.200;2023-11-21T00:37:42;5.76;71.22
75134;HTU21D;73631;44.326;40.200;2023-11-21T00:40:09;5.76;71.29
75134;HTU21D;73631;44.326;40.200;2023-11-21T00:42:35;5.71;71.32
75134;HTU21D;73631;44.326;40.200;2023-11-21T00:45:03;5.69;71.28
75134;HTU21D;73631;44.326;40.200;2023-11-21T00:47:30;5.68;71.32
75134;HTU21D;73631;44.326;40.200;2023-11-21T00:49:57;5.66;71.32
75134;HTU21D;73631;44.326;40.200;2023-11-21T00:52:23;5.64;71.34
75134;HTU21D;73631;44.326;40.200;2023-11-21T00:54:50;5.62;71.38
75134;HTU21D;73631;44.326;40.200;2023-11-21T00:57:17;5.59;71.37
75134;HTU21D;73631;44.326;40.200;2023-11-21T00:59:43;5.56;71.41
75134;HTU21D;73631;44.326;40.200;2023-11-21T01:02:10;5.53;71.40
75134;HTU21D;73631;44.326;40.200;2023-11-21T01:04:36;5.52;71.45
75134;HTU21D;73631;44.326;40.200;2023-11-21T01:07:04;5.50;71.49
75134;HTU21D;73631;44.326;40.200;2023-11-21T01:09:31;5.46;71.63
75134;HTU21D;73631;44.326;40.200;2023-11-21T01:11:57;5.46;71.61
75134;HTU21D;73631;44.326;40.200;2023-11-21T01:14:26;5.43;71.64
75134;HTU21D;73631;44.326;40.200;2023-11-21T01:16:53;5.42;71.70
75134;HTU21D;73631;44.326;40.200;2023-11-21T01:19:19;5.42;71.69
75134;HTU21D;73631;44.326;40.200;2023-11-21T01:21:46;5.40;71.71
75134;HTU21D;73631;44.326;40.200;2023-11-21T01:24:13;5.41;71.73
75134;HTU21D;73631;44.326;40.200;2023-11-21T01:26:39;5.41;71.76
75134;HTU21D;73631;44.326;40.200;2023-11-21T01:29:06;5.41;71.80
75134;HTU21D;73631;44.326;40.200;2023-11-21T01:31:32;5.39;71.78
75134;HTU21D;73631;44.326;40.200;2023-11-21T01:33:59;5.37;71.78
75134;HTU21D;73631;44.326;40.200;2023-11-21T01:36:36;5.34;71.72
75134;HTU21D;73631;44.326;40.200;2023-11-21T01:39:03;5.30;71.82
75134;HTU21D;73631;44.326;40.200;2023-11-21T01:41:34;5.26;71.84
75134;HTU21D;73631;44.326;40.200;2023-11-21T01:44:02;5.21;71.84
75134;HTU21D;73631;44.326;40.200;2023-11-21T01:46:28;5.17;71.90
75134;HTU21D;73631;44.326;40.200;2023-11-21T01:48:56;5.16;71.95
75134;HTU21D;73631;44.326;40.200;2023-11-21T01:51:22;5.15;71.93
75134;HTU21D;73631;44.326;40.200;2023-11-21T01:53:49;5.11;71.98
75134;HTU21D;73631;44.326;40.200;2023-11-21T01:56:17;5.04;71.90
75134;HTU21D;73631;44.326;40.200;2023-11-21T01:58:45;5.02;71.92
75134;HTU21D;73631;44.326;40.200;2023-11-21T02:01:12;4.97;71.96
75134;HTU21D;73631;44.326;40.200;2023-11-21T02:03:40;4.95;71.99
75134;HTU21D;73631;44.326;40.200;2023-11-21T02:06:07;4.94;72.02
75134;HTU21D;73631;44.326;40.200;2023-11-21T02:08:34;4.93;72.08
75134;HTU21D;73631;44.326;40.200;2023-11-21T02:11:04;4.91;72.02
75134;HTU21D;73631;44.326;40.200;2023-11-21T02:13:30;4.89;72.02
75134;HTU21D;73631;44.326;40.200;2023-11-21T02:15:59;4.86;72.04
75134;HTU21D;73631;44.326;40.200;2023-11-21T02:18:28;4.83;72.06
75134;HTU21D;73631;44.326;40.200;2023-11-21T02:20:56;4.82;72.09
75134;HTU21D;73631;44.326;40.200;2023-11-21T02:23:22;4.80;72.09
75134;HTU21D;73631;44.326;40.200;2023-11-21T02:25:49;4.79;72.09
75134;HTU21D;73631;44.326;40.200;2023-11-21T02:28:16;4.80;72.12
75134;HTU21D;73631;44.326;40.200;2023-11-21T02:30:52;4.79;72.19
75134;HTU21D;73631;44.326;40.200;2023-11-21T02:33:23;4.75;72.19
75134;HTU21D;73631;44.326;40.200;2023-11-21T02:35:50;4.71;72.17
75134;HTU21D;73631;44.326;40.200;2023-11-21T02:38:23;4.69;72.32
75134;HTU21D;73631;44.326;40.200;2023-11-21T02:40:50;4.68;72.35
75134;HTU21D;73631;44.326;40.200;2023-11-21T02:43:16;4.71;72.37
75134;HTU21D;73631;44.326;40.200;2023-11-21T02:45:44;4.72;72.38
75134;HTU21D;73631;44.326;40.200;2023-11-21T02:48:15;4.74;72.35
75134;HTU21D;73631;44.326;40.200;2023-11-21T02:50:43;4.74;72.38
75134;HTU21D;73631;44.326;40.200;2023-11-21T02:53:09;4.75;72.31
75134;HTU21D;73631;44.326;40.200;2023-11-21T02:55:37;4.75;72.34
75134;HTU21D;73631;44.326;40.200;2023-11-21T02:58:03;4.75;72.35
75134;HTU21D;73631;44.326;40.200;2023-11-21T03:00:31;4.77;72.36
75134;HTU21D;73631;44.326;40.200;2023-11-21T03:02:57;4.78;72.36
75134;HTU21D;73631;44.326;40.200;2023-11-21T03:05:25;4.78;72.35
75134;HTU21D;73631;44.326;40.200;2023-11-21T03:07:53;4.76;72.25
75134;HTU21D;73631;44.326;40.200;2023-11-21T03:10:21;4.74;72.29
75134;HTU21D;73631;44.326;40.200;2023-11-21T03:12:49;4.74;72.34
75134;HTU21D;73631;44.326;40.200;2023-11-21T03:15:15;4.74;72.35
75134;HTU21D;73631;44.326;40.200;2023-11-21T03:17:42;4.75;72.38
75134;HTU21D;73631;44.326;40.200;2023-11-21T03:20:09;4.75;72.42
75134;HTU21D;73631;44.326;40.200;2023-11-21T03:22:39;4.76;72.44
75134;HTU21D;73631;44.326;40.200;2023-11-21T03:25:08;4.76;72.42
75134;HTU21D;73631;44.326;40.200;2023-11-21T03:27:37;4.76;72.48
75134;HTU21D;73631;44.326;40.200;2023-11-21T03:30:05;4.76;72.48
75134;HTU21D;73631;44.326;40.200;2023-11-21T03:32:33;4.74;72.43
75134;HTU21D;73631;44.326;40.200;2023-11-21T03:35:00;4.73;72.46
75134;HTU21D;73631;44.326;40.200;2023-11-21T03:37:29;4.72;72.49
75134;HTU21D;73631;44.326;40.200;2023-11-21T03:39:58;4.69;72.43
75134;HTU21D;73631;44.326;40.200;2023-11-21T03:42:26;4.68;72.49
75134;HTU21D;73631;44.326;40.200;2023-11-21T03:44:52;4.67;72.53
75134;HTU21D;73631;44.326;40.200;2023-11-21T03:47:20;4.68;72.55
75134;HTU21D;73631;44.326;40.200;2023-11-21T03:49:46;4.68;72.54
75134;HTU21D;73631;44.326;40.200;2023-11-21T03:52:16;4.68;72.61
75134;HTU21D;73631;44.326;40.200;2023-11-21T03:54:42;4.69;72.64
75134;HTU21D;73631;44.326;40.200;2023-11-21T03:57:09;4.73;72.68
75134;HTU21D;73631;44.326;40.200;2023-11-21T03:59:40;4.73;72.64
75134;HTU21D;73631;44.326;40.200;2023-11-21T04:02:08;4.73;72.64
75134;HTU21D;73631;44.326;40.200;2023-11-21T04:04:35;4.71;72.66
75134;HTU21D;73631;44.326;40.200;2023-11-21T04:07:02;4.72;72.71
75134;HTU21D;73631;44.326;40.200;2023-11-21T04:09:29;4.69;72.66
75134;HTU21D;73631;44.326;40.200;2023-11-21T04:11:57;4.68;72.68
75134;HTU21D;73631;44.326;40.200;2023-11-21T04:14:24;4.66;72.64
75134;HTU21D;73631;44.326;40.200;2023-11-21T04:16:50;4.63;72.60
75134;HTU21D;73631;44.326;40.200;2023-11-21T04:19:17;4.60;72.67
75134;HTU21D;73631;44.326;40.200;2023-11-21T04:21:43;4.59;72.74
75134;HTU21D;73631;44.326;40.200;2023-11-21T04:24:10;4.60;72.75
75134;HTU21D;73631;44.326;40.200;2023-11-21T04:26:36;4.58;72.79
75134;HTU21D;73631;44.326;40.200;2023-11-21T04:29:03;4.59;72.74
75134;HTU21D;73631;44.326;40.200;2023-11-21T04:31:30;4.56;72.74
75134;HTU21D;73631;44.326;40.200;2023-11-21T04:33:58;4.52;72.70
75134;HTU21D;73631;44.326;40.200;2023-11-21T04:36:24;4.50;72.78
75134;HTU21D;73631;44.326;40.200;2023-11-21T04:38:52;4.48;72.88
75134;HTU21D;73631;44.326;40.200;2023-11-21T04:41:20;4.50;72.91
75134;HTU21D;73631;44.326;40.200;2023-11-21T04:43:47;4.47;72.85
75134;HTU21D;73631;44.326;40.200;2023-11-21T04:46:14;4.44;72.88
75134;HTU21D;73631;44.326;40.200;2023-11-21T04:48:42;4.44;72.88
75134;HTU21D;73631;44.326;40.200;2023-11-21T04:51:09;4.41;72.89
75134;HTU21D;73631;44.326;40.200;2023-11-21T04:53:37;4.42;73.01
75134;HTU21D;73631;44.326;40.200;2023-11-21T04:56:05;4.44;73.04
75134;HTU21D;73631;44.326;40.200;2023-11-21T04:58:32;4.45;73.05
75134;HTU21D;73631;44.326;40.200;2023-11-21T05:00:59;4.47;73.09
75134;HTU21D;73631;44.326;40.200;2023-11-21T05:03:25;4.48;73.11
75134;HTU21D;73631;44.326;40.200;2023-11-21T05:05:52;4.48;73.06
75134;HTU21D;73631;44.326;40.200;2023-11-21T05:08:18;4.48;73.05
75134;HTU21D;73631;44.326;40.200;2023-11-21T05:10:46;4.47;73.09
75134;HTU21D;73631;44.326;40.200;2023-11-21T05:13:13;4.49;73.11
75134;HTU21D;73631;44.326;40.200;2023-11-21T05:15:43;4.50;73.15
75134;HTU21D;73631;44.326;40.200;2023-11-21T05:18:10;4.53;73.18
75134;HTU21D;73631;44.326;40.200;2023-11-21T05:20:36;4.54;73.17
75134;HTU21D;73631;44.326;40.200;2023-11-21T05:23:04;4.56;73.19
75134;HTU21D;73631;44.326;40.200;2023-11-21T05:25:30;4.59;73.23
75134;HTU21D;73631;44.326;40.200;2023-11-21T05:27:58;4.62;73.27
75134;HTU21D;73631;44.326;40.200;2023-11-21T05:30:27;4.64;73.25
75134;HTU21D;73631;44.326;40.200;2023-11-21T05:32:53;4.66;73.25
75134;HTU21D;73631;44.326;40.200;2023-11-21T05:35:20;4.66;73.22
75134;HTU21D;73631;44.326;40.200;2023-11-21T05:37:47;4.68;73.23
75134;HTU21D;73631;44.326;40.200;2023-11-21T05:40:14;4.72;73.24
75134;HTU21D;73631;44.326;40.200;2023-11-21T05:42:41;4.71;73.12
75134;HTU21D;73631;44.326;40.200;2023-11-21T05:45:12;4.72;73.16
75134;HTU21D;73631;44.326;40.200;2023-11-21T05:47:44;4.71;73.18
75134;HTU21D;73631;44.326;40.200;2023-11-21T05:50:13;4.71;73.22
75134;HTU21D;73631;44.326;40.200;2023-11-21T05:52:46;4.73;73.28
75134;HTU21D;73631;44.326;40.200;2023-11-21T05:55:14;4.76;73.28
75134;HTU21D;73631;44.326;40.200;2023-11-21T05:57:43;4.76;73.35
75134;HTU21D;73631;44.326;40.200;2023-11-21T06:00:13;4.79;73.35
75134;HTU21D;73631;44.326;40.200;2023-11-21T06:02:53;4.84;73.38
75134;HTU21D;73631;44.326;40.200;2023-11-21T06:05:21;4.88;73.38
75134;HTU21D;73631;44.326;40.200;2023-11-21T06:07:53;4.89;73.34
75134;HTU21D;73631;44.326;40.200;2023-11-21T06:10:21;4.88;73.29
75134;HTU21D;73631;44.326;40.200;2023-11-21T06:12:50;4.87;73.32
75134;HTU21D;73631;44.326;40.200;2023-11-21T06:15:18;4.84;73.42
75134;HTU21D;73631;44.326;40.200;2023-11-21T06:17:50;4.84;73.45
75134;HTU21D;73631;44.326;40.200;2023-11-21T06:20:20;4.84;73.47
75134;HTU21D;73631;44.326;40.200;2023-11-21T06:22:48;4.86;73.60
75134;HTU21D;73631;44.326;40.200;2023-11-21T06:25:19;4.87;73.59
75134;HTU21D;73631;44.326;40.200;2023-11-21T06:27:47;4.91;73.60
75134;HTU21D;73631;44.326;40.200;2023-11-21T06:30:14;4.93;73.57
75134;HTU21D;73631;44.326;40.200;2023-11-21T06:32:43;4.94;73.46
75134;HTU21D;73631;44.326;40.200;2023-11-21T06:35:49;4.95;73.46
75134;HTU21D;73631;44.326;40.200;2023-11-21T06:38:26;4.94;73.48
75134;HTU21D;73631;44.326;40.200;2023-11-21T06:40:57;4.95;73.51
75134;HTU21D;73631;44.326;40.200;2023-11-21T06:43:24;4.96;73.51
75134;HTU21D;73631;44.326;40.200;2023-11-21T06:45:59;5.00;73.54
75134;HTU21D;73631;44.326;40.200;2023-11-21T06:48:28;5.03;73.51
75134;HTU21D;73631;44.326;40.200;2023-11-21T06:51:07;5.06;73.55
75134;HTU21D;73631;44.326;40.200;2023-11-21T06:53:47;5.08;73.54
75134;HTU21D;73631;44.326;40.200;2023-11-21T06:56:17;5.11;73.54
75134;HTU21D;73631;44.326;40.200;2023-11-21T06:58:45;5.12;73.54
75134;HTU21D;73631;44.326;40.200;2023-11-21T07:01:13;5.13;73.51
75134;HTU21D;73631;44.326;40.200;2023-11-21T07:03:39;5.16;73.54
75134;HTU21D;73631;44.326;40.200;2023-11-21T07:06:07;5.18;73.58
75134;HTU21D;73631;44.326;40.200;2023-11-21T07:08:34;5.23;73.63
75134;HTU21D;73631;44.326;40.200;2023-11-21T07:11:01;5.28;73.64
75134;HTU21D;73631;44.326;40.200;2023-11-21T07:13:29;5.34;73.57
75134;HTU21D;73631;44.326;40.200;2023-11-21T07:15:58;5.38;73.56
75134;HTU21D;73631;44.326;40.200;2023-11-21T07:18:25;5.41;73.55
75134;HTU21D;73631;44.326;40.200;2023-11-21T07:20:52;5.46;73.50
75134;HTU21D;73631;44.326;40.200;2023-11-21T07:23:18;5.49;73.48
75134;HTU21D;73631;44.326;40.200;2023-11-21T07:25:45;5.52;73.48
75134;HTU21D;73631;44.326;40.200;2023-11-21T07:28:11;5.54;73.46
75134;HTU21D;73631;44.326;40.200;2023-11-21T07:30:38;5.55;73.43
75134;HTU21D;73631;44.326;40.200;2023-11-21T07:33:04;5.59;73.41
75134;HTU21D;73631;44.326;40.200;2023-11-21T07:35:31;5.60;73.41
75134;HTU21D;73631;44.326;40.200;2023-11-21T07:37:57;5.65;73.41
75134;HTU21D;73631;44.326;40.200;2023-11-21T07:40:24;5.68;73.42
75134;HTU21D;73631;44.326;40.200;2023-11-21T07:42:50;5.71;73.41
75134;HTU21D;73631;44.326;40.200;2023-11-21T07:45:17;5.76;73.40
75134;HTU21D;73631;44.326;40.200;2023-11-21T07:47:44;5.79;73.38
75134;HTU21D;73631;44.326;40.200;2023-11-21T07:50:10;5.85;73.41
75134;HTU21D;73631;44.326;40.200;2023-11-21T07:52:37;5.90;73.35
75134;HTU21D;73631;44.326;40.200;2023-11-21T07:55:04;5.92;73.24
75134;HTU21D;73631;44.326;40.200;2023-11-21T07:57:31;5.95;73.28
75134;HTU21D;73631;44.326;40.200;2023-11-21T07:59:57;6.01;73.38
75134;HTU21D;73631;44.326;40.200;2023-11-21T08:02:24;6.08;73.38
75134;HTU21D;73631;44.326;40.200;2023-11-21T08:04:52;6.16;73.29
75134;HTU21D;73631;44.326;40.200;2023-11-21T08:07:25;6.25;73.34
75134;HTU21D;73631;44.326;40.200;2023-11-21T08:09:55;6.29;73.18
75134;HTU21D;73631;44.326;40.200;2023-11-21T08:12:22;6.31;73.08
75134;HTU21D;73631;44.326;40.200;2023-11-21T08:15:14;6.35;73.03
75134;HTU21D;73631;44.326;40.200;2023-11-21T08:17:40;6.36;72.98
75134;HTU21D;73631;44.326;40.200;2023-11-21T08:20:12;6.38;72.94
75134;HTU21D;73631;44.326;40.200;2023-11-21T08:22:46;6.41;72.94
75134;HTU21D;73631;44.326;40.200;2023-11-21T08:25:14;6.42;72.83
75134;HTU21D;73631;44.326;40.200;2023-11-21T08:27:40;6.43;72.83
75134;HTU21D;73631;44.326;40.200;2023-11-21T08:30:07;6.43;72.78
75134;HTU21D;73631;44.326;40.200;2023-11-21T08:32:34;6.45;72.80
75134;HTU21D;73631;44.326;40.200;2023-11-21T08:35:01;6.49;72.82
75134;HTU21D;73631;44.326;40.200;2023-11-21T08:37:27;6.49;72.74
75134;HTU21D;73631;44.326;40.200;2023-11-21T08:39:58;6.51;72.75
75134;HTU21D;73631;44.326;40.200;2023-11-21T08:42:29;6.52;72.74
75134;HTU21D;73631;44.326;40.200;2023-11-21T08:44:56;6.52;72.69
75134;HTU21D;73631;44.326;40.200;2023-11-21T08:47:26;6.54;72.67
75134;HTU21D;73631;44.326;40.200;2023-11-21T08:49:53;6.57;72.71
75134;HTU21D;73631;44.326;40.200;2023-11-21T08:52:21;6.59;72.56
75134;HTU21D;73631;44.326;40.200;2023-11-21T08:54:50;6.57;72.40
75134;HTU21D;73631;44.326;40.200;2023-11-21T08:57:23;6.59;72.46
75134;HTU21D;73631;44.326;40.200;2023-11-21T08:59:49;6.64;72.46
75134;HTU21D;73631;44.326;40.200;2023-11-21T09:02:22;6.67;72.50
75134;HTU21D;73631;44.326;40.200;2023-11-21T09:04:49;6.67;72.37
75134;HTU21D;73631;44.326;40.200;2023-11-21T09:07:21;6.65;72.27
75134;HTU21D;73631;44.326;40.200;2023-11-21T09:09:48;6.65;72.19
75134;HTU21D;73631;44.326;40.200;2023-11-21T09:12:15;6.65;72.16
75134;HTU21D;73631;44.326;40.200;2023-11-21T09:14:43;6.67;72.10
75134;HTU21D;73631;44.326;40.200;2023-11-21T09:17:10;6.69;72.05
75134;HTU21D;73631;44.326;40.200;2023-11-21T09:19:38;6.74;72.00
75134;HTU21D;73631;44.326;40.200;2023-11-21T09:22:05;6.79;71.91
75134;HTU21D;73631;44.326;40.200;2023-11-21T09:24:32;6.84;71.87
75134;HTU21D;73631;44.326;40.200;2023-11-21T09:26:59;6.89;71.85
75134;HTU21D;73631;44.326;40.200;2023-11-21T09:29:29;6.96;71.64
75134;HTU21D;73631;44.326;40.200;2023-11-21T09:31:56;7.01;71.70
75134;HTU21D;73631;44.326;40.200;2023-11-21T09:34:25;7.10;71.65
75134;HTU21D;73631;44.326;40.200;2023-11-21T09:36:52;7.18;71.54
75134;HTU21D;73631;44.326;40.200;2023-11-21T09:39:19;7.25;71.35
75134;HTU21D;73631;44.326;40.200;2023-11-21T09:41:57;7.28;71.00
75134;HTU21D;73631;44.326;40.200;2023-11-21T09:44:44;7.33;71.04
75134;HTU21D;73631;44.326;40.200;2023-11-21T09:47:15;7.37;70.92
75134;HTU21D;73631;44.326;40.200;2023-11-21T09:49:47;7.40;70.70
75134;HTU21D;73631;44.326;40.200;2023-11-21T09:52:25;7.41;70.65
75134;HTU21D;73631;44.326;40.200;2023-11-21T09:54:53;7.45;70.79
75134;HTU21D;73631;44.326;40.200;2023-11-21T09:57:21;7.47;70.57
75134;HTU21D;73631;44.326;40.200;2023-11-21T09:59:52;7.49;70.49
75134;HTU21D;73631;44.326;40.200;2023-11-21T10:02:27;7.49;70.39
75134;HTU21D;73631;44.326;40.200;2023-11-21T10:04:55;7.50;70.41
75134;HTU21D;73631;44.326;40.200;2023-11-21T10:07:26;7.55;70.42
75134;HTU21D;73631;44.326;40.200;2023-11-21T10:09:54;7.61;70.42
75134;HTU21D;73631;44.326;40.200;2023-11-21T10:12:23;7.67;70.31
75134;HTU21D;73631;44.326;40.200;2023-11-21T10:14:51;7.69;70.19
75134;HTU21D;73631;44.326;40.200;2023-11-21T10:17:19;7.71;70.07
75134;HTU21D;73631;44.326;40.200;2023-11-21T10:19:47;7.75;69.99
75134;HTU21D;73631;44.326;40.200;2023-11-21T10:22:15;7.77;69.85
75134;HTU21D;73631;44.326;40.200;2023-11-21T10:24:43;7.76;69.81
75134;HTU21D;73631;44.326;40.200;2023-11-21T10:27:10;7.76;69.73
75134;HTU21D;73631;44.326;40.200;2023-11-21T10:29:36;7.75;69.64
75134;HTU21D;73631;44.326;40.200;2023-11-21T10:32:03;7.75;69.58
75134;HTU21D;73631;44.326;40.200;2023-11-21T10:34:31;7.76;69.61
75134;HTU21D;73631;44.326;40.200;2023-11-21T10:36:58;7.76;69.44
75134;HTU21D;73631;44.326;40.200;2023-11-21T10:39:25;7.74;69.47
75134;HTU21D;73631;44.326;40.200;2023-11-21T10:41:56;7.76;69.51
75134;HTU21D;73631;44.326;40.200;2023-11-21T10:44:23;7.75;69.42
75134;HTU21D;73631;44.326;40.200;2023-11-21T10:46:51;7.73;69.21
75134;HTU21D;73631;44.326;40.200;2023-11-21T10:49:25;7.72;69.16
75134;HTU21D;73631;44.326;40.200;2023-11-21T10:51:53;7.69;68.89
75134;HTU21D;73631;44.326;40.200;2023-11-21T10:54:21;7.68;69.13
75134;HTU21D;73631;44.326;40.200;2023-11-21T10:56:58;7.69;69.16
75134;HTU21D;73631;44.326;40.200;2023-11-21T10:59:29;7.72;69.20
75134;HTU21D;73631;44.326;40.200;2023-11-21T11:01:58;7.74;69.22
75134;HTU21D;73631;44.326;40.200;2023-11-21T11:04:27;7.77;69.14
75134;HTU21D;73631;44.326;40.200;2023-11-21T11:06:57;7.82;68.98
75134;HTU21D;73631;44.326;40.200;2023-11-21T11:09:24;7.83;68.99
75134;HTU21D;73631;44.326;40.200;2023-11-21T11:11:51;7.84;69.04
75134;HTU21D;73631;44.326;40.200;2023-11-21T11:28:17;9.49;61.74
75134;HTU21D;73631;44.326;40.200;2023-11-21T11:36:19;8.67;64.03
75134;HTU21D;73631;44.326;40.200;2023-11-21T11:38:48;8.50;64.72
75134;HTU21D;73631;44.326;40.200;2023-11-21T11:41:26;8.35;65.11
75134;HTU21D;73631;44.326;40.200;2023-11-21T11:43:54;8.26;65.56
75134;HTU21D;73631;44.326;40.200;2023-11-21T11:46:21;8.14;65.77
75134;HTU21D;73631;44.326;40.200;2023-11-21T11:49:07;8.02;66.01
75134;HTU21D;73631;44.326;40.200;2023-11-21T11:51:34;7.96;66.30
75134;HTU21D;73631;44.326;40.200;2023-11-21T11:54:02;7.90;66.47
75134;HTU21D;73631;44.326;40.200;2023-11-21T11:56:29;7.85;66.49
75134;HTU21D;73631;44.326;40.200;2023-11-21T11:58:59;7.82;66.69
75134;HTU21D;73631;44.326;40.200;2023-11-21T12:01:26;7.79;66.84
75134;HTU21D;73631;44.326;40.200;2023-11-21T12:06:46;7.77;66.97
75134;HTU21D;73631;44.326;40.200;2023-11-21T12:09:23;7.78;67.00
75134;HTU21D;73631;44.326;40.200;2023-11-21T12:11:50;7.74;67.06
75134;HTU21D;73631;44.326;40.200;2023-11-21T12:14:17;7.73;67.07
75134;HTU21D;73631;44.326;40.200;2023-11-21T12:16:44;7.72;67.16
75134;HTU21D;73631;44.326;40.200;2023-11-21T12:19:14;7.71;67.20
75134;HTU21D;73631;44.326;40.200;2023-11-21T12:21:41;7.73;67.24
75134;HTU21D;73631;44.326;40.200;2023-11-21T12:24:08;7.73;67.24
75134;HTU21D;73631;44.326;40.200;2023-11-21T12:26:35;7.70;67.04
75134;HTU21D;73631;44.326;40.200;2023-11-21T12:29:02;7.69;67.20
75134;HTU21D;73631;44.326;40.200;2023-11-21T12:31:30;7.70;67.30
75134;HTU21D;73631;44.326;40.200;2023-11-21T12:33:57;7.72;67.27
75134;HTU21D;73631;44.326;40.200;2023-11-21T12:36:24;7.74;67.29
75134;HTU21D;73631;44.326;40.200;2023-11-21T12:38:51;7.75;67.25
75134;HTU21D;73631;44.326;40.200;2023-11-21T12:41:18;7.74;67.25
75134;HTU21D;73631;44.326;40.200;2023-11-21T12:43:44;7.77;67.27
75134;HTU21D;73631;44.326;40.200;2023-11-21T12:46:11;7.77;67.20
75134;HTU21D;73631;44.326;40.200;2023-11-21T12:48:44;7.78;67.17
75134;HTU21D;73631;44.326;40.200;2023-11-21T12:51:12;7.78;67.13
75134;HTU21D;73631;44.326;40.200;2023-11-21T12:53:42;7.75;66.99
75134;HTU21D;73631;44.326;40.200;2023-11-21T12:56:12;7.73;66.98
75134;HTU21D;73631;44.326;40.200;2023-11-21T12:58:40;7.71;67.04
75134;HTU21D;73631;44.326;40.200;2023-11-21T13:01:13;7.68;67.00
75134;HTU21D;73631;44.326;40.200;2023-11-21T13:03:46;7.67;66.94
75134;HTU21D;73631;44.326;40.200;2023-11-21T13:06:16;7.63;66.98
75134;HTU21D;73631;44.326;40.200;2023-11-21T13:08:44;7.60;66.96
75134;HTU21D;73631;44.326;40.200;2023-11-21T13:11:11;7.56;66.95
75134;HTU21D;73631;44.326;40.200;2023-11-21T13:13:41;7.52;66.95
75134;HTU21D;73631;44.326;40.200;2023-11-21T13:16:11;7.45;66.93
75134;HTU21D;73631;44.326;40.200;2023-11-21T13:18:39;7.42;66.94
75134;HTU21D;73631;44.326;40.200;2023-11-21T13:21:08;7.35;66.96
75134;HTU21D;73631;44.326;40.200;2023-11-21T13:23:40;7.32;67.02
75134;HTU21D;73631;44.326;40.200;2023-11-21T13:26:08;7.27;67.01
75134;HTU21D;73631;44.326;40.200;2023-11-21T13:28:35;7.24;67.03
75134;HTU21D;73631;44.326;40.200;2023-11-21T13:31:05;7.22;67.04
75134;HTU21D;73631;44.326;40.200;2023-11-21T13:33:57;7.13;67.10
75134;HTU21D;73631;44.326;40.200;2023-11-21T13:36:31;7.10;67.18
75134;HTU21D;73631;44.326;40.200;2023-11-21T13:39:01;7.07;67.23
75134;HTU21D;73631;44.326;40.200;2023-11-21T13:41:37;7.03;67.20
75134;HTU21D;73631;44.326;40.200;2023-11-21T13:44:04;6.99;67.24
75134;HTU21D;73631;44.326;40.200;2023-11-21T13:46:51;6.94;67.23
75134;HTU21D;73631;44.326;40.200;2023-11-21T13:49:17;6.87;67.25
75134;HTU21D;73631;44.326;40.200;2023-11-21T13:51:47;6.81;67.36
75134;HTU21D;73631;44.326;40.200;2023-11-21T13:54:18;6.80;67.40
75134;HTU21D;73631;44.326;40.200;2023-11-21T13:56:47;6.75;67.45
75134;HTU21D;73631;44.326;40.200;2023-11-21T13:59:15;6.71;67.43
75134;HTU21D;73631;44.326;40.200;2023-11-21T14:01:47;6.69;67.49
75134;HTU21D;73631;44.326;40.200;2023-11-21T14:04:34;6.65;67.55
75134;HTU21D;73631;44.326;40.200;2023-11-21T14:07:23;6.64;67.65
75134;HTU21D;73631;44.326;40.200;2023-11-21T14:10:03;6.63;67.72
75134;HTU21D;73631;44.326;40.200;2023-11-21T14:12:31;6.63;67.74
75134;HTU21D;73631;44.326;40.200;2023-11-21T14:15:01;6.63;67.81
75134;HTU21D;73631;44.326;40.200;2023-11-21T14:17:35;6.64;67.77
75134;HTU21D;73631;44.326;40.200;2023-11-21T14:20:04;6.61;67.78
75134;HTU21D;73631;44.326;40.200;2023-11-21T14:22:33;6.59;67.77
75134;HTU21D;73631;44.326;40.200;2023-11-21T14:25:00;6.59;67.74
75134;HTU21D;73631;44.326;40.200;2023-11-21T14:27:30;6.59;67.76
75134;HTU21D;73631;44.326;40.200;2023-11-21T14:29:58;6.59;67.75
75134;HTU21D;73631;44.326;40.200;2023-11-21T14:32:25;6.59;67.74
75134;HTU21D;73631;44.326;40.200;2023-11-21T14:34:52;6.58;67.78
75134;HTU21D;73631;44.326;40.200;2023-11-21T14:37:19;6.58;67.76
75134;HTU21D;73631;44.326;40.200;2023-11-21T14:39:45;6.57;67.75
75134;HTU21D;73631;44.326;40.200;2023-11-21T14:42:16;6.56;67.76
75134;HTU21D;73631;44.326;40.200;2023-11-21T14:44:47;6.53;67.75
75134;HTU21D;73631;44.326;40.200;2023-11-21T14:47:13;6.51;67.75
75134;HTU21D;73631;44.326;40.200;2023-11-21T14:49:44;6.49;67.81
75134;HTU21D;73631;44.326;40.200;2023-11-21T14:52:23;6.46;67.79
75134;HTU21D;73631;44.326;40.200;2023-11-21T14:55:05;6.43;67.83
75134;HTU21D;73631;44.326;40.200;2023-11-21T14:57:58;6.41;67.91
75134;HTU21D;73631;44.326;40.200;2023-11-21T15:00:30;6.40;67.95
75134;HTU21D;73631;44.326;40.200;2023-11-21T15:03:00;6.40;67.97
75134;HTU21D;73631;44.326;40.200;2023-11-21T15:05:27;6.40;67.96
75134;HTU21D;73631;44.326;40.200;2023-11-21T15:07:55;6.39;67.96
75134;HTU21D;73631;44.326;40.200;2023-11-21T15:10:24;6.39;67.91
75134;HTU21D;73631;44.326;40.200;2023-11-21T15:13:11;6.36;67.91
75134;HTU21D;73631;44.326;40.200;2023-11-21T15:15:39;6.36;67.97
75134;HTU21D;73631;44.326;40.200;2023-11-21T15:18:06;6.36;67.97
75134;HTU21D;73631;44.326;40.200;2023-11-21T15:20:33;6.35;67.95
75134;HTU21D;73631;44.326;40.200;2023-11-21T15:22:59;6.36;67.92
75134;HTU21D;73631;44.326;40.200;2023-11-21T15:25:26;6.36;67.97
75134;HTU21D;73631;44.326;40.200;2023-11-21T15:27:53;6.35;67.97
75134;HTU21D;73631;44.326;40.200;2023-11-21T15:30:21;6.37;67.97
75134;HTU21D;73631;44.326;40.200;2023-11-21T15:32:51;6.36;67.94
75134;HTU21D;73631;44.326;40.200;2023-11-21T15:35:20;6.36;67.98
75134;HTU21D;73631;44.326;40.200;2023-11-21T15:37:47;6.36;68.03
75134;HTU21D;73631;44.326;40.200;2023-11-21T15:40:14;6.38;68.01
75134;HTU21D;73631;44.326;40.200;2023-11-21T15:42:42;6.37;68.01
75134;HTU21D;73631;44.326;40.200;2023-11-21T15:45:10;6.38;68.02
75134;HTU21D;73631;44.326;40.200;2023-11-21T15:47:37;6.38;68.03